Middleburg, Florida
Current Conditions -  °F | °C
As of 12:50 PM on Monday 26 Jan 2015 (Local Time) from KVQQ Reporting Station
Broken Clouds Broken Clouds  
Wind Chill: 57°   Ceiling: 3700
Heat Index: 57°   Visibility: 10mi
Dew Point: 39°   Wind: 14mph
Humidity: 51%   Direction: 280°W
Pressure: 29.84"   Gusts: 30mph
Location:  30.07°N, 81.87°W
Report Text: KVQQ 261750Z 28012G26KT 10SM BKN037 14/04 A2984
Loading
Personal Weather Stations






























Interactive Weather Map New forecast layout! Learn more

10-Day Weather Forecast

Advertisements
Track Severe Weather on mobile